Time;durP1;ratioP1;P1;durP2;ratioP2;P2;SDS_P1;SDS_P2;PMS_P1;PMS_P2;Temp;Humidity;BMP_temperature;BMP_pressure;BME280_temperature;BME280_humidity;BME280_pressure;Samples;Min_cycle;Max_cycle;Signal;HPM_P1;HPM_P2
2021/09/01 00:00:14;;;;;;;;;;;17.10;99.90;;;;;;5072185;28;20405;-56
2021/09/01 00:03:18;;;;;;;;;;;17.10;99.90;;;;;;5072612;28;20413;-55
2021/09/01 00:06:23;;;;;;;;;;;17.20;99.90;;;;;;5072030;28;19924;-51
2021/09/01 00:09:27;;;;;;;;;;;17.10;99.90;;;;;;5071747;28;19919;-52
2021/09/01 00:12:32;;;;;;;;;;;17.10;99.90;;;;;;5070939;28;19915;-53
2021/09/01 00:15:35;;;;;;;;;;;17.10;99.90;;;;;;5072060;28;20294;-51
2021/09/01 00:18:40;;;;;;;;;;;17.10;99.90;;;;;;5071581;28;20409;-55
2021/09/01 00:21:44;;;;;;;;;;;17.10;99.90;;;;;;5071702;28;19954;-54
2021/09/01 00:24:48;;;;;;;;;;;17.00;99.90;;;;;;5071962;28;19919;-51
2021/09/01 00:27:52;;;;;;;;;;;16.80;99.90;;;;;;5059210;28;19919;-54
2021/09/01 00:30:57;;;;;;;;;;;16.70;99.90;;;;;;5071668;28;19908;-51
2021/09/01 00:34:01;;;;;;;;;;;16.60;99.90;;;;;;5071953;28;20397;-52
2021/09/01 00:37:05;;;;;;;;;;;16.40;99.90;;;;;;5071559;28;19912;-57
2021/09/01 00:40:09;;;;;;;;;;;16.40;99.90;;;;;;5071243;28;19924;-53
2021/09/01 00:43:13;;;;;;;;;;;16.40;99.90;;;;;;5071574;28;20377;-52
2021/09/01 00:46:17;;;;;;;;;;;16.50;99.90;;;;;;5071425;28;20362;-54
2021/09/01 00:49:22;;;;;;;;;;;16.40;99.90;;;;;;5071011;28;20286;-55
2021/09/01 00:52:27;;;;;;;;;;;16.30;99.90;;;;;;5071546;28;19916;-51
2021/09/01 00:55:31;;;;;;;;;;;16.30;99.90;;;;;;5071491;28;19935;-51
2021/09/01 00:58:37;;;;;;;;;;;16.30;99.90;;;;;;5071045;28;19912;-52
2021/09/01 01:01:44;;;;;;;;;;;16.40;99.90;;;;;;5071338;28;19919;-52
2021/09/01 01:04:48;;;;;;;;;;;16.40;99.90;;;;;;5071762;28;19908;-51
2021/09/01 01:07:52;;;;;;;;;;;16.40;99.90;;;;;;5071256;28;19919;-52
2021/09/01 01:10:57;;;;;;;;;;;16.40;99.90;;;;;;5070915;28;19912;-53
2021/09/01 01:14:03;;;;;;;;;;;16.50;99.90;;;;;;5071100;28;20397;-58
2021/09/01 01:17:08;;;;;;;;;;;16.40;99.90;;;;;;5071457;28;19916;-54
2021/09/01 01:20:12;;;;;;;;;;;16.40;99.90;;;;;;5070835;28;19915;-51
2021/09/01 01:23:22;;;;;;;;;;;16.40;99.90;;;;;;5069882;28;20397;-51
2021/09/01 01:26:28;;;;;;;;;;;16.30;99.90;;;;;;5070817;28;20398;-54
2021/09/01 01:29:31;;;;;;;;;;;16.30;99.90;;;;;;5070627;28;19920;-58
2021/09/01 01:32:36;;;;;;;;;;;16.20;99.90;;;;;;5070830;28;19915;-51
2021/09/01 01:35:42;;;;;;;;;;;16.30;99.90;;;;;;5071060;28;19915;-51
2021/09/01 01:38:46;;;;;;;;;;;16.30;99.90;;;;;;5070447;28;19931;-54
2021/09/01 01:41:50;;;;;;;;;;;16.30;99.90;;;;;;5070709;28;19915;-52
2021/09/01 01:44:55;;;;;;;;;;;16.30;99.90;;;;;;5058659;28;19932;-51
2021/09/01 01:47:59;;;;;;;;;;;16.20;99.90;;;;;;5070464;28;20373;-51
2021/09/01 01:51:04;;;;;;;;;;;15.90;99.90;;;;;;5070255;28;19915;-50
2021/09/01 01:54:08;;;;;;;;;;;15.80;99.90;;;;;;5070247;28;19919;-56
2021/09/01 01:57:14;;;;;;;;;;;15.80;99.90;;;;;;5070076;28;19923;-52
2021/09/01 02:00:18;;;;;;;;;;;15.70;99.90;;;;;;5069906;28;19923;-51
2021/09/01 02:03:21;;;;;;;;;;;15.60;99.90;;;;;;5070132;28;20433;-53
2021/09/01 02:06:26;;;;;;;;;;;15.50;99.90;;;;;;5069961;28;20286;-52
2021/09/01 02:09:31;;;;;;;;;;;15.50;99.90;;;;;;5069698;28;19916;-54
2021/09/01 02:12:36;;;;;;;;;;;15.40;99.90;;;;;;5069605;28;19949;-53
2021/09/01 02:15:40;;;;;;;;;;;15.40;99.90;;;;;;5070064;28;19916;-52
2021/09/01 02:18:44;;;;;;;;;;;15.40;99.90;;;;;;5057368;28;20382;-53
2021/09/01 02:21:48;;;;;;;;;;;15.40;99.90;;;;;;5069405;28;20389;-54
2021/09/01 02:24:52;;;;;;;;;;;15.20;99.90;;;;;;5069707;28;20278;-54
2021/09/01 02:27:56;;;;;;;;;;;14.90;99.90;;;;;;5069037;28;19919;-52
2021/09/01 02:31:01;;;;;;;;;;;14.80;99.90;;;;;;5056190;28;19935;-51
2021/09/01 02:34:05;;;;;;;;;;;14.80;99.90;;;;;;5050074;28;19932;-54
2021/09/01 02:37:09;;;;;;;;;;;14.80;99.90;;;;;;5053560;28;20286;-51
2021/09/01 02:40:12;;;;;;;;;;;14.80;99.90;;;;;;5053692;28;20442;-53
2021/09/01 02:43:16;;;;;;;;;;;14.90;99.90;;;;;;5053602;28;19916;-55
2021/09/01 02:46:20;;;;;;;;;;;14.90;99.90;;;;;;5053713;28;19980;-51
2021/09/01 02:49:25;;;;;;;;;;;14.90;99.90;;;;;;5053561;28;20401;-52
2021/09/01 02:52:30;;;;;;;;;;;15.00;99.90;;;;;;5053470;28;20314;-51
2021/09/01 02:55:34;;;;;;;;;;;15.00;99.90;;;;;;5053626;28;19916;-51
2021/09/01 02:58:39;;;;;;;;;;;15.00;99.90;;;;;;5053368;28;19916;-51
2021/09/01 03:01:44;;;;;;;;;;;15.00;99.90;;;;;;5053064;28;19938;-51
2021/09/01 03:04:48;;;;;;;;;;;15.00;99.90;;;;;;5053434;28;20405;-52
2021/09/01 03:07:51;;;;;;;;;;;15.00;99.90;;;;;;5053408;28;19920;-51
2021/09/01 03:10:56;;;;;;;;;;;15.00;99.90;;;;;;5052693;28;19920;-51
2021/09/01 03:14:00;;;;;;;;;;;15.00;99.90;;;;;;5053314;28;20395;-52
2021/09/01 03:17:03;;;;;;;;;;;15.10;99.90;;;;;;5053074;28;20409;-55
2021/09/01 03:20:08;;;;;;;;;;;15.00;99.90;;;;;;5053043;28;19913;-54
2021/09/01 03:23:11;;;;;;;;;;;15.10;99.90;;;;;;5052930;28;19916;-53
2021/09/01 03:26:17;;;;;;;;;;;15.10;99.90;;;;;;5052775;28;20394;-52
2021/09/01 03:29:21;;;;;;;;;;;15.20;99.90;;;;;;5053119;28;19916;-51
2021/09/01 03:32:26;;;;;;;;;;;15.20;99.90;;;;;;5061556;28;19935;-51
2021/09/01 03:35:30;;;;;;;;;;;15.20;99.90;;;;;;5060966;28;19920;-52
2021/09/01 03:38:33;;;;;;;;;;;15.10;99.90;;;;;;5072742;28;19916;-52
2021/09/01 03:41:37;;;;;;;;;;;15.10;99.90;;;;;;5072259;28;19919;-57
2021/09/01 03:44:41;;;;;;;;;;;15.10;99.90;;;;;;5072725;28;19915;-52
2021/09/01 03:47:45;;;;;;;;;;;15.10;99.90;;;;;;5072612;28;19923;-51
2021/09/01 03:50:49;;;;;;;;;;;14.90;99.90;;;;;;5072122;28;19909;-56
2021/09/01 03:53:53;;;;;;;;;;;14.90;99.90;;;;;;5072395;28;19919;-52
2021/09/01 03:56:57;;;;;;;;;;;14.90;99.90;;;;;;5072868;28;19923;-53
2021/09/01 04:00:03;;;;;;;;;;;14.90;99.90;;;;;;5072475;28;19912;-54
2021/09/01 04:03:15;;;;;;;;;;;14.80;99.90;;;;;;5072204;28;19931;-51
2021/09/01 04:06:19;;;;;;;;;;;14.70;99.90;;;;;;5072436;28;20261;-51
2021/09/01 04:09:23;;;;;;;;;;;14.70;99.90;;;;;;5072097;28;19937;-51
2021/09/01 04:12:27;;;;;;;;;;;14.60;99.90;;;;;;5071725;28;20381;-51
2021/09/01 04:15:31;;;;;;;;;;;14.50;99.90;;;;;;5072267;28;19941;-53
2021/09/01 04:18:35;;;;;;;;;;;14.50;99.90;;;;;;5072178;28;19915;-50
2021/09/01 04:21:39;;;;;;;;;;;14.50;99.90;;;;;;5071968;28;19908;-51
2021/09/01 04:24:42;;;;;;;;;;;14.40;99.90;;;;;;5072542;28;19919;-51
2021/09/01 04:27:46;;;;;;;;;;;14.40;99.90;;;;;;5072335;28;19920;-51
2021/09/01 04:30:51;;;;;;;;;;;14.30;99.90;;;;;;5071630;28;19932;-57
2021/09/01 04:33:55;;;;;;;;;;;14.30;99.90;;;;;;5052224;28;19920;-51
2021/09/01 04:36:59;;;;;;;;;;;14.20;99.90;;;;;;5052282;28;19935;-51
2021/09/01 04:40:03;;;;;;;;;;;14.20;99.90;;;;;;5052035;28;19915;-50
2021/09/01 04:43:07;;;;;;;;;;;14.10;99.90;;;;;;5051356;28;19919;-53
2021/09/01 04:46:12;;;;;;;;;;;14.10;99.90;;;;;;5062707;28;19915;-55
2021/09/01 04:49:15;;;;;;;;;;;14.10;99.90;;;;;;5051802;28;19919;-53
2021/09/01 04:52:19;;;;;;;;;;;14.10;99.90;;;;;;5051203;28;19920;-51
2021/09/01 04:55:23;;;;;;;;;;;14.10;99.90;;;;;;5051735;28;19935;-51
2021/09/01 04:58:27;;;;;;;;;;;14.10;99.90;;;;;;5051144;28;19916;-51
2021/09/01 05:01:31;;;;;;;;;;;14.20;99.90;;;;;;5051381;28;19916;-51
2021/09/01 05:04:35;;;;;;;;;;;14.30;99.90;;;;;;5051525;28;19916;-51
2021/09/01 05:07:39;;;;;;;;;;;14.30;99.90;;;;;;5051551;28;19917;-51
2021/09/01 05:10:44;;;;;;;;;;;14.30;99.90;;;;;;5051297;28;20326;-52
2021/09/01 05:13:48;;;;;;;;;;;14.30;99.90;;;;;;5051130;28;19927;-51
2021/09/01 05:16:52;;;;;;;;;;;14.40;99.90;;;;;;5051486;28;19935;-51
2021/09/01 05:19:56;;;;;;;;;;;14.40;99.90;;;;;;5051037;28;19987;-56
2021/09/01 05:23:01;;;;;;;;;;;14.50;99.90;;;;;;5050808;28;19916;-53
2021/09/01 05:26:05;;;;;;;;;;;14.60;99.90;;;;;;5051125;28;19916;-51
2021/09/01 05:29:09;;;;;;;;;;;15.70;99.90;;;;;;5038578;28;19987;-52
2021/09/01 05:32:18;;;;;;;;;;;18.70;99.90;;;;;;5057988;28;19909;-53
2021/09/01 05:35:22;;;;;;;;;;;21.40;99.90;;;;;;5065734;28;20290;-52
2021/09/01 05:38:26;;;;;;;;;;;23.40;99.90;;;;;;5051254;28;19928;-53
2021/09/01 05:41:30;;;;;;;;;;;25.10;99.90;;;;;;5050600;28;19920;-52
2021/09/01 05:44:34;;;;;;;;;;;26.40;99.90;;;;;;5050451;28;20287;-52
2021/09/01 05:47:38;;;;;;;;;;;27.00;96.80;;;;;;5050673;28;19924;-55
2021/09/01 05:50:42;;;;;;;;;;;25.90;96.50;;;;;;5059734;28;19919;-58
2021/09/01 05:53:46;;;;;;;;;;;24.00;99.00;;;;;;5069520;28;20378;-52
2021/09/01 05:56:52;;;;;;;;;;;22.40;99.90;;;;;;5069875;28;19935;-52
2021/09/01 05:59:58;;;;;;;;;;;22.20;99.90;;;;;;5067413;28;20681;-53
2021/09/01 06:03:07;;;;;;;;;;;23.20;99.90;;;;;;5062290;28;19939;-54
2021/09/01 06:06:14;;;;;;;;;;;24.00;99.90;;;;;;5067163;28;19915;-55
2021/09/01 06:09:19;;;;;;;;;;;25.90;99.60;;;;;;5068643;28;19923;-54
2021/09/01 06:12:25;;;;;;;;;;;26.80;97.70;;;;;;5069650;28;19935;-51
2021/09/01 06:15:30;;;;;;;;;;;26.50;96.90;;;;;;5070099;28;19990;-55
2021/09/01 06:18:34;;;;;;;;;;;26.50;96.90;;;;;;5065851;28;19924;-53
2021/09/01 06:21:38;;;;;;;;;;;26.40;96.40;;;;;;5068343;28;19915;-53
2021/09/01 06:24:42;;;;;;;;;;;26.40;96.10;;;;;;5069265;28;19919;-52
2021/09/01 06:27:46;;;;;;;;;;;26.60;95.70;;;;;;5068949;28;19920;-52
2021/09/01 06:30:50;;;;;;;;;;;27.10;95.40;;;;;;5049559;28;20318;-52
2021/09/01 06:33:54;;;;;;;;;;;27.50;94.90;;;;;;5049751;28;19920;-54
2021/09/01 06:37:00;;;;;;;;;;;28.10;94.80;;;;;;5056903;28;19915;-52
2021/09/01 06:40:04;;;;;;;;;;;28.00;93.00;;;;;;5069144;28;19931;-53
2021/09/01 06:43:11;;;;;;;;;;;26.80;92.40;;;;;;5068481;28;19915;-52
2021/09/01 06:46:16;;;;;;;;;;;25.90;95.00;;;;;;5069511;28;19919;-53
2021/09/01 06:49:20;;;;;;;;;;;24.50;96.00;;;;;;5056665;28;19923;-52
2021/09/01 06:52:23;;;;;;;;;;;26.40;94.80;;;;;;5067364;28;19913;-57
2021/09/01 06:55:28;;;;;;;;;;;27.10;93.60;;;;;;5069502;28;19912;-53
2021/09/01 06:58:36;;;;;;;;;;;27.70;92.50;;;;;;5068988;28;19932;-54
2021/09/01 07:01:39;;;;;;;;;;;28.90;91.50;;;;;;5069570;28;20348;-54
2021/09/01 07:04:43;;;;;;;;;;;30.10;90.60;;;;;;5068767;28;19919;-50
2021/09/01 07:07:47;;;;;;;;;;;30.70;88.00;;;;;;5069452;28;20584;-51
2021/09/01 07:10:51;;;;;;;;;;;31.60;86.40;;;;;;5061671;28;19923;-53
2021/09/01 07:13:55;;;;;;;;;;;32.20;83.30;;;;;;5076543;28;19915;-51
2021/09/01 07:17:00;;;;;;;;;;;32.20;82.40;;;;;;5089575;28;19946;-54
2021/09/01 07:20:06;;;;;;;;;;;32.90;81.10;;;;;;5074478;28;19987;-52
2021/09/01 07:23:10;;;;;;;;;;;33.30;78.90;;;;;;5072141;28;19920;-55
2021/09/01 07:26:14;;;;;;;;;;;33.60;77.70;;;;;;5068108;28;19915;-51
2021/09/01 07:29:18;;;;;;;;;;;34.30;77.00;;;;;;5072819;28;20409;-51
2021/09/01 07:32:22;;;;;;;;;;;34.80;74.00;;;;;;5060112;28;19916;-53
2021/09/01 07:35:26;;;;;;;;;;;35.00;72.80;;;;;;5067411;28;19908;-51
2021/09/01 07:38:31;;;;;;;;;;;35.10;73.00;;;;;;5072542;28;19920;-52
2021/09/01 07:41:37;;;;;;;;;;;30.20;76.40;;;;;;5052297;28;19920;-52
2021/09/01 07:44:41;;;;;;;;;;;27.70;84.40;;;;;;5071052;28;19919;-54
2021/09/01 07:47:52;;;;;;;;;;;29.10;81.90;;;;;;5072494;28;19919;-52
2021/09/01 07:50:57;;;;;;;;;;;27.10;86.00;;;;;;5071835;28;20365;-53
2021/09/01 07:54:01;;;;;;;;;;;28.20;86.20;;;;;;5070613;28;19919;-53
2021/09/01 07:57:06;;;;;;;;;;;29.70;83.60;;;;;;5072590;28;19915;-51
2021/09/01 08:00:11;;;;;;;;;;;31.80;79.60;;;;;;5059452;28;19919;-53
2021/09/01 08:03:15;;;;;;;;;;;30.30;78.40;;;;;;5072568;28;19915;-54
2021/09/01 08:06:19;;;;;;;;;;;29.80;81.60;;;;;;5051965;28;19921;-53
2021/09/01 08:09:22;;;;;;;;;;;30.90;80.60;;;;;;5067907;28;19920;-55
2021/09/01 08:12:26;;;;;;;;;;;32.60;78.40;;;;;;5059045;28;19915;-53
2021/09/01 08:15:31;;;;;;;;;;;31.70;75.00;;;;;;5067070;28;19915;-57
2021/09/01 08:18:34;;;;;;;;;;;31.60;75.80;;;;;;5052056;28;20302;-55
2021/09/01 08:21:39;;;;;;;;;;;30.20;79.80;;;;;;5058392;28;19919;-53
2021/09/01 08:24:44;;;;;;;;;;;29.70;81.60;;;;;;5071257;28;19916;-51
2021/09/01 08:27:49;;;;;;;;;;;31.10;76.50;;;;;;5070172;28;19919;-57
2021/09/01 08:30:53;;;;;;;;;;;29.70;79.50;;;;;;5071308;28;20389;-53
2021/09/01 08:33:57;;;;;;;;;;;29.90;79.20;;;;;;5070006;28;19919;-54
2021/09/01 08:37:03;;;;;;;;;;;30.80;79.50;;;;;;5068555;28;19915;-51
2021/09/01 08:40:08;;;;;;;;;;;31.50;77.30;;;;;;5067252;28;19912;-55
2021/09/01 08:43:11;;;;;;;;;;;34.60;74.50;;;;;;5071465;28;20475;-53
2021/09/01 08:46:16;;;;;;;;;;;35.50;72.10;;;;;;5070195;28;19919;-56
2021/09/01 08:49:20;;;;;;;;;;;33.80;71.90;;;;;;5069273;28;19919;-53
2021/09/01 08:52:24;;;;;;;;;;;31.40;72.70;;;;;;5070637;28;20393;-54
2021/09/01 08:55:29;;;;;;;;;;;29.20;79.20;;;;;;5070461;28;19908;-53
2021/09/01 08:58:33;;;;;;;;;;;29.20;80.30;;;;;;5070736;28;19923;-53
2021/09/01 09:01:41;;;;;;;;;;;32.30;76.20;;;;;;5071015;28;19919;-55
2021/09/01 09:04:45;;;;;;;;;;;34.00;74.20;;;;;;5070684;28;19919;-54
2021/09/01 09:07:53;;;;;;;;;;;36.40;70.70;;;;;;5058783;28;19939;-53
2021/09/01 09:10:57;;;;;;;;;;;36.80;67.00;;;;;;5066172;28;19919;-53
2021/09/01 09:14:14;;;;;;;;;;;34.80;71.00;;;;;;5070745;28;19919;-55
2021/09/01 09:17:20;;;;;;;;;;;34.80;68.90;;;;;;5069871;28;19919;-57
2021/09/01 09:20:25;;;;;;;;;;;34.80;68.30;;;;;;5068810;28;19920;-54
2021/09/01 09:23:29;;;;;;;;;;;33.60;71.00;;;;;;5070215;28;19919;-52
2021/09/01 09:26:38;;;;;;;;;;;35.30;67.70;;;;;;5057310;28;19927;-52
2021/09/01 09:29:42;;;;;;;;;;;36.00;65.40;;;;;;5070402;28;20310;-58
2021/09/01 09:32:53;;;;;;;;;;;38.30;64.20;;;;;;5069057;28;20379;-54
2021/09/01 09:36:02;;;;;;;;;;;39.10;63.90;;;;;;5069721;28;19908;-53
2021/09/01 09:39:06;;;;;;;;;;;39.20;61.90;;;;;;5061650;28;19915;-57
2021/09/01 09:42:11;;;;;;;;;;;40.00;60.80;;;;;;5065788;28;19913;-52
2021/09/01 09:45:18;;;;;;;;;;;38.90;61.50;;;;;;5061583;28;19935;-56
2021/09/01 09:48:27;;;;;;;;;;;39.10;59.50;;;;;;5064457;28;19912;-52
2021/09/01 09:51:41;;;;;;;;;;;38.50;57.80;;;;;;5055914;28;19927;-55
2021/09/01 09:54:46;;;;;;;;;;;39.40;59.10;;;;;;5068961;28;19919;-57
2021/09/01 09:57:51;;;;;;;;;;;41.70;56.00;;;;;;5067707;28;19923;-54
2021/09/01 10:00:55;;;;;;;;;;;43.10;54.90;;;;;;5068411;28;19916;-55
2021/09/01 10:04:00;;;;;;;;;;;41.90;53.50;;;;;;5050676;28;19924;-53
2021/09/01 10:07:04;;;;;;;;;;;39.10;56.10;;;;;;5068338;28;19987;-59
2021/09/01 10:10:08;;;;;;;;;;;41.00;53.60;;;;;;5067482;28;20288;-56
2021/09/01 10:13:13;;;;;;;;;;;42.60;52.30;;;;;;5069692;28;19919;-54
2021/09/01 10:16:19;;;;;;;;;;;44.10;51.70;;;;;;5069149;28;19919;-53
2021/09/01 10:19:26;;;;;;;;;;;45.50;51.60;;;;;;5060877;28;19913;-53
2021/09/01 10:22:30;;;;;;;;;;;42.70;50.30;;;;;;5062276;28;19917;-53
2021/09/01 10:25:35;;;;;;;;;;;39.60;53.50;;;;;;5056463;28;19982;-56
2021/09/01 10:28:39;;;;;;;;;;;38.20;53.20;;;;;;5066401;28;19923;-55
2021/09/01 10:31:44;;;;;;;;;;;37.80;53.30;;;;;;5066390;28;20602;-55
2021/09/01 10:34:49;;;;;;;;;;;38.10;53.70;;;;;;5068319;28;19915;-54
2021/09/01 10:37:54;;;;;;;;;;;35.60;54.80;;;;;;5063233;28;19916;-51
2021/09/01 10:41:06;;;;;;;;;;;37.50;53.40;;;;;;5069031;28;20276;-53
2021/09/01 10:44:13;;;;;;;;;;;37.40;51.50;;;;;;5069160;28;19916;-58
2021/09/01 10:47:19;;;;;;;;;;;40.50;51.80;;;;;;5067283;28;19915;-54
2021/09/01 10:50:30;;;;;;;;;;;41.10;50.10;;;;;;5058970;28;19915;-53
2021/09/01 10:53:36;;;;;;;;;;;38.70;51.80;;;;;;5069460;28;20298;-52
2021/09/01 10:56:50;;;;;;;;;;;41.10;51.30;;;;;;5081056;28;20310;-58
2021/09/01 10:59:58;;;;;;;;;;;40.20;50.00;;;;;;5071939;28;19935;-52
2021/09/01 11:03:02;;;;;;;;;;;36.20;53.60;;;;;;5072523;28;19931;-53
2021/09/01 11:06:10;;;;;;;;;;;37.20;52.80;;;;;;5073181;28;20316;-53
2021/09/01 11:09:17;;;;;;;;;;;38.80;52.70;;;;;;5072013;28;19923;-56
2021/09/01 11:12:21;;;;;;;;;;;41.40;51.40;;;;;;5071690;28;19923;-57
2021/09/01 11:15:25;;;;;;;;;;;43.20;49.80;;;;;;5073048;28;20119;-58
2021/09/01 11:18:29;;;;;;;;;;;44.60;49.10;;;;;;5071809;28;19962;-56
2021/09/01 11:21:38;;;;;;;;;;;44.70;48.00;;;;;;5071701;28;19912;-55
2021/09/01 11:24:50;;;;;;;;;;;43.90;47.70;;;;;;5072718;28;19931;-52
2021/09/01 11:27:58;;;;;;;;;;;40.80;49.90;;;;;;5072329;28;19923;-56
2021/09/01 11:31:02;;;;;;;;;;;39.70;50.20;;;;;;5071276;28;19915;-57
2021/09/01 11:34:08;;;;;;;;;;;38.80;50.90;;;;;;5054248;28;19916;-52
2021/09/01 11:37:13;;;;;;;;;;;37.80;51.20;;;;;;5072235;28;20297;-53
2021/09/01 11:40:17;;;;;;;;;;;38.30;50.40;;;;;;5071561;28;20564;-52
2021/09/01 11:43:22;;;;;;;;;;;37.20;50.80;;;;;;5072162;28;19983;-55
2021/09/01 11:46:27;;;;;;;;;;;40.50;50.00;;;;;;5072453;28;19915;-53
2021/09/01 11:49:33;;;;;;;;;;;41.70;49.40;;;;;;5071226;28;19923;-54
2021/09/01 11:52:38;;;;;;;;;;;43.70;48.70;;;;;;5071132;28;19916;-57
2021/09/01 11:55:45;;;;;;;;;;;42.00;47.80;;;;;;5072407;28;19931;-52
2021/09/01 11:58:57;;;;;;;;;;;42.10;48.40;;;;;;5068015;28;19908;-52
2021/09/01 12:02:01;;;;;;;;;;;43.80;47.40;;;;;;5071120;28;19920;-52
2021/09/01 12:05:05;;;;;;;;;;;43.90;47.70;;;;;;5072352;28;19920;-50
2021/09/01 12:08:19;;;;;;;;;;;44.50;47.80;;;;;;5070100;28;20406;-52
2021/09/01 12:11:23;;;;;;;;;;;42.50;47.90;;;;;;5071077;28;19915;-56
2021/09/01 12:14:28;;;;;;;;;;;39.60;48.40;;;;;;5071854;28;19908;-50
2021/09/01 12:17:32;;;;;;;;;;;41.40;48.70;;;;;;5072049;28;19915;-53
2021/09/01 12:20:36;;;;;;;;;;;43.30;48.50;;;;;;5071035;28;19931;-52
2021/09/01 12:23:40;;;;;;;;;;;44.80;47.50;;;;;;5071831;28;19919;-58
2021/09/01 12:26:44;;;;;;;;;;;46.10;46.70;;;;;;5072436;28;19926;-51
2021/09/01 12:29:51;;;;;;;;;;;46.80;45.80;;;;;;5070816;28;19916;-53
2021/09/01 12:33:03;;;;;;;;;;;39.80;46.90;;;;;;5070958;28;19908;-55
2021/09/01 12:36:06;;;;;;;;;;;40.60;49.20;;;;;;5072141;28;19938;-55
2021/09/01 12:39:15;;;;;;;;;;;40.20;49.00;;;;;;5070877;28;19912;-54
2021/09/01 12:42:23;;;;;;;;;;;42.30;49.40;;;;;;5070552;28;19916;-52
2021/09/01 12:45:27;;;;;;;;;;;43.70;48.20;;;;;;5071908;28;19919;-52
2021/09/01 12:48:35;;;;;;;;;;;44.90;47.50;;;;;;5071242;28;20310;-52
2021/09/01 12:51:41;;;;;;;;;;;45.60;46.60;;;;;;5070271;28;19919;-57
2021/09/01 12:54:45;;;;;;;;;;;46.20;46.20;;;;;;5071106;28;19920;-52
2021/09/01 12:57:49;;;;;;;;;;;46.40;46.20;;;;;;5071698;28;19915;-52
2021/09/01 13:00:53;;;;;;;;;;;45.20;46.10;;;;;;5069950;28;19916;-59
2021/09/01 13:03:57;;;;;;;;;;;45.00;45.80;;;;;;5070536;28;19935;-53
2021/09/01 13:07:02;;;;;;;;;;;43.10;46.90;;;;;;5071177;28;19912;-53
2021/09/01 13:10:06;;;;;;;;;;;43.80;47.00;;;;;;5069481;28;19920;-53
2021/09/01 13:13:11;;;;;;;;;;;44.60;46.90;;;;;;5069447;28;20576;-56
2021/09/01 13:16:17;;;;;;;;;;;45.00;46.70;;;;;;5070937;28;19939;-55
2021/09/01 13:19:20;;;;;;;;;;;45.40;46.30;;;;;;5068740;28;19919;-52
2021/09/01 13:22:24;;;;;;;;;;;41.20;46.90;;;;;;5069584;28;19915;-51
2021/09/01 13:25:28;;;;;;;;;;;37.70;49.30;;;;;;5058375;28;19920;-53
2021/09/01 13:28:32;;;;;;;;;;;38.50;51.30;;;;;;5069492;28;19927;-52
2021/09/01 13:31:36;;;;;;;;;;;39.30;50.80;;;;;;5069211;28;20324;-55
2021/09/01 13:34:40;;;;;;;;;;;40.00;49.70;;;;;;5070941;28;19912;-51
2021/09/01 13:37:45;;;;;;;;;;;36.00;51.80;;;;;;5069666;28;20305;-53
2021/09/01 13:40:49;;;;;;;;;;;34.50;55.10;;;;;;5069062;28;19915;-55
2021/09/01 13:43:53;;;;;;;;;;;33.40;56.00;;;;;;5069950;28;19931;-54
2021/09/01 13:46:57;;;;;;;;;;;32.20;56.80;;;;;;5070326;28;19916;-53
2021/09/01 13:50:01;;;;;;;;;;;33.30;57.20;;;;;;5068727;28;19916;-51
2021/09/01 13:53:06;;;;;;;;;;;34.90;55.70;;;;;;5057120;28;19919;-51
2021/09/01 13:56:10;;;;;;;;;;;36.20;54.70;;;;;;5070224;28;19924;-51
2021/09/01 13:59:17;;;;;;;;;;;36.40;54.20;;;;;;5068528;28;20287;-53
2021/09/01 14:02:22;;;;;;;;;;;36.30;54.10;;;;;;5056713;28;19912;-54
2021/09/01 14:05:26;;;;;;;;;;;36.00;54.20;;;;;;5070279;28;20078;-52
2021/09/01 14:08:31;;;;;;;;;;;35.40;54.30;;;;;;5068242;28;19919;-57
2021/09/01 14:11:35;;;;;;;;;;;35.20;54.50;;;;;;5068668;28;19929;-51
2021/09/01 14:14:39;;;;;;;;;;;34.70;55.00;;;;;;5069888;28;19935;-52
2021/09/01 14:17:43;;;;;;;;;;;34.70;55.40;;;;;;5069393;28;20397;-52
2021/09/01 14:20:47;;;;;;;;;;;34.30;55.40;;;;;;5068380;28;19923;-53
2021/09/01 14:23:51;;;;;;;;;;;34.20;55.90;;;;;;5070212;28;19909;-51
2021/09/01 14:26:55;;;;;;;;;;;34.00;56.50;;;;;;5069146;28;19915;-51
2021/09/01 14:29:59;;;;;;;;;;;34.00;57.00;;;;;;5068286;28;20382;-53
2021/09/01 14:33:08;;;;;;;;;;;34.00;56.90;;;;;;5069572;28;19916;-51
2021/09/01 14:36:13;;;;;;;;;;;33.90;56.80;;;;;;5070015;28;19916;-51
2021/09/01 14:39:18;;;;;;;;;;;33.40;57.20;;;;;;5068461;28;19932;-51
2021/09/01 14:42:22;;;;;;;;;;;33.10;58.00;;;;;;5069178;28;19916;-55
2021/09/01 14:45:26;;;;;;;;;;;32.80;58.70;;;;;;5070238;28;19915;-51
2021/09/01 14:48:30;;;;;;;;;;;32.90;58.80;;;;;;5068290;28;19923;-53
2021/09/01 14:51:34;;;;;;;;;;;33.10;58.90;;;;;;5068642;28;19919;-52
2021/09/01 14:54:38;;;;;;;;;;;33.30;58.20;;;;;;5069664;28;20005;-53
2021/09/01 14:57:42;;;;;;;;;;;33.30;58.20;;;;;;5068458;28;19908;-52
2021/09/01 15:00:46;;;;;;;;;;;33.40;58.10;;;;;;5068010;28;19919;-51
2021/09/01 15:03:51;;;;;;;;;;;33.30;57.80;;;;;;5069578;28;19920;-52
2021/09/01 15:06:56;;;;;;;;;;;32.80;57.70;;;;;;5068611;28;19915;-51
2021/09/01 15:10:05;;;;;;;;;;;32.90;58.10;;;;;;5067558;28;19979;-52
2021/09/01 15:13:09;;;;;;;;;;;32.80;57.00;;;;;;5079960;28;19912;-51
2021/09/01 15:16:13;;;;;;;;;;;33.20;57.80;;;;;;5068673;28;19928;-57
2021/09/01 15:19:19;;;;;;;;;;;33.60;57.60;;;;;;5068282;28;19912;-52
2021/09/01 15:22:23;;;;;;;;;;;34.00;57.20;;;;;;5069042;28;19912;-59
2021/09/01 15:25:28;;;;;;;;;;;34.10;57.00;;;;;;5068922;28;20283;-51
2021/09/01 15:28:33;;;;;;;;;;;34.30;57.00;;;;;;5067893;28;20396;-52
2021/09/01 15:31:37;;;;;;;;;;;34.30;56.60;;;;;;5067983;28;19916;-53
2021/09/01 15:34:43;;;;;;;;;;;34.40;56.70;;;;;;5069100;28;20405;-55
2021/09/01 15:37:49;;;;;;;;;;;34.40;56.80;;;;;;5067956;28;19987;-52
2021/09/01 15:40:54;;;;;;;;;;;32.20;58.90;;;;;;5055287;28;19915;-55
2021/09/01 15:43:59;;;;;;;;;;;31.10;61.30;;;;;;5072213;28;20292;-51
2021/09/01 15:47:03;;;;;;;;;;;30.40;62.60;;;;;;5071501;28;19915;-52
2021/09/01 15:50:09;;;;;;;;;;;29.80;63.90;;;;;;5070972;28;19931;-54
2021/09/01 15:53:15;;;;;;;;;;;30.00;63.90;;;;;;5072461;28;19939;-52
2021/09/01 15:56:20;;;;;;;;;;;30.30;63.60;;;;;;5071724;28;19919;-52
2021/09/01 15:59:25;;;;;;;;;;;30.20;63.50;;;;;;5071024;28;19915;-51
2021/09/01 16:02:29;;;;;;;;;;;30.10;64.00;;;;;;5072163;28;19915;-51
2021/09/01 16:05:37;;;;;;;;;;;30.10;63.70;;;;;;5071715;28;20393;-52
2021/09/01 16:08:42;;;;;;;;;;;30.10;64.00;;;;;;5070625;28;19923;-53
2021/09/01 16:11:50;;;;;;;;;;;29.80;63.90;;;;;;5071375;28;19919;-57
2021/09/01 16:14:54;;;;;;;;;;;29.70;64.40;;;;;;5072259;28;20398;-53
2021/09/01 16:18:05;;;;;;;;;;;29.50;64.60;;;;;;5070920;28;20401;-53
2021/09/01 16:21:36;;;;;;;;;;;29.40;65.20;;;;;;5058504;28;19920;-52
2021/09/01 16:24:41;;;;;;;;;;;29.40;64.80;;;;;;5072328;28;20305;-52
2021/09/01 16:27:45;;;;;;;;;;;29.20;65.00;;;;;;5071351;28;19915;-52
2021/09/01 16:30:51;;;;;;;;;;;29.30;65.10;;;;;;5058081;28;19919;-51
2021/09/01 16:33:57;;;;;;;;;;;29.30;64.50;;;;;;5052161;28;19915;-51
2021/09/01 16:37:03;;;;;;;;;;;29.00;64.60;;;;;;5071721;28;19923;-52
2021/09/01 16:40:07;;;;;;;;;;;29.00;65.70;;;;;;5070808;28;19908;-51
2021/09/01 16:43:12;;;;;;;;;;;29.10;65.50;;;;;;5071232;28;20385;-54
2021/09/01 16:46:18;;;;;;;;;;;29.20;64.50;;;;;;5072074;28;19915;-51
2021/09/01 16:49:22;;;;;;;;;;;29.00;65.00;;;;;;5070521;28;20401;-52
2021/09/01 16:52:28;;;;;;;;;;;28.80;65.00;;;;;;5070624;28;19916;-54
2021/09/01 16:55:33;;;;;;;;;;;28.70;65.00;;;;;;5071461;28;19923;-51
2021/09/01 16:58:44;;;;;;;;;;;28.80;65.40;;;;;;5070460;28;19915;-53
2021/09/01 17:01:48;;;;;;;;;;;28.60;65.40;;;;;;5069794;28;19915;-55
2021/09/01 17:04:52;;;;;;;;;;;28.50;65.00;;;;;;5071643;28;19975;-51
2021/09/01 17:07:57;;;;;;;;;;;28.50;65.80;;;;;;5070442;28;19920;-56
2021/09/01 17:11:05;;;;;;;;;;;28.50;66.20;;;;;;5069529;28;20335;-51
2021/09/01 17:14:09;;;;;;;;;;;28.40;66.10;;;;;;5071496;28;19923;-51
2021/09/01 17:17:15;;;;;;;;;;;28.20;66.70;;;;;;5070576;28;19916;-53
2021/09/01 17:20:20;;;;;;;;;;;28.00;67.00;;;;;;5057324;28;19923;-52
2021/09/01 17:23:25;;;;;;;;;;;27.90;67.10;;;;;;5070432;28;20409;-51
2021/09/01 17:26:31;;;;;;;;;;;27.60;67.50;;;;;;5070696;28;19935;-51
2021/09/01 17:29:45;;;;;;;;;;;27.50;68.00;;;;;;5069438;28;20407;-51
2021/09/01 17:32:50;;;;;;;;;;;27.30;68.40;;;;;;5069585;28;19919;-52
2021/09/01 17:35:56;;;;;;;;;;;27.00;69.10;;;;;;5070768;28;19915;-51
2021/09/01 17:39:03;;;;;;;;;;;26.90;69.70;;;;;;5069193;28;19919;-52
2021/09/01 17:42:07;;;;;;;;;;;26.70;70.40;;;;;;5068755;28;19916;-51
2021/09/01 17:45:12;;;;;;;;;;;26.50;70.50;;;;;;5070361;28;20397;-51
2021/09/01 17:48:20;;;;;;;;;;;26.30;70.90;;;;;;5069734;28;19912;-51
2021/09/01 17:51:24;;;;;;;;;;;26.10;71.20;;;;;;5068348;28;19915;-54
2021/09/01 17:54:30;;;;;;;;;;;26.00;71.50;;;;;;5058420;28;19916;-52